Terminal Aerodrome Forecast
Issued by NWS

Home | Current Version | Previous Version | Text Only | Print | Product List | Glossary Off
Versions: 1 2 3 4 5 6 7 8 9 10 11 12

487
FTUS43 KGRB 211124
TAFAUW
TAF
KAUW 211124Z 2112/2212 32004KT P6SM SKC
     FM211500 34007KT P6SM SCT060 SCT250
     FM212300 31003KT P6SM FEW070=

USA.gov is the U.S. government's official web portal to all federal, state and local government web resources and services.